Time;durP1;ratioP1;P1;durP2;ratioP2;P2;SDS_P1;SDS_P2;PMS_P1;PMS_P2;Temp;Humidity;BMP_temperature;BMP_pressure;BME280_temperature;BME280_humidity;BME280_pressure;Samples;Min_cycle;Max_cycle;Signal;HPM_P1;HPM_P2
2023/05/09 00:01:33;;;;;;;;;;;;;;;;;;;;;
2023/05/09 00:07:22;;;;;;;15.20;13.60;;;;;;;13.88;100.00;95850.22;6156293;23;20201;-86
2023/05/09 00:10:37;;;;;;;15.83;13.67;;;;;;;13.87;100.00;95851.22;6157802;23;20213;-85
2023/05/09 00:13:33;;;;;;;17.47;13.60;;;;;;;13.86;100.00;95849.56;6157059;23;20158;-85
2023/05/09 00:17:01;;;;;;;17.03;13.70;;;;;;;13.86;100.00;95841.72;6135275;23;20237;-85
2023/05/09 00:26:52;;;;;;;15.87;14.17;;;;;;;13.83;100.00;95829.00;6044189;23;20164;-85
2023/05/09 00:33:31;;;;;;;;;;;;;;;;;;;;;
2023/05/09 00:40:07;;;;;;;14.30;12.40;;;;;;;13.69;100.00;95840.06;5949770;24;20199;-86
2023/05/09 00:42:57;;;;;;;;;;;;;;;;;;;;;
2023/05/09 00:45:55;;;;;;;15.50;13.53;;;;;;;13.76;100.00;95835.84;5874595;24;20240;-87
2023/05/09 00:52:19;;;;;;;16.23;13.83;;;;;;;13.73;100.00;95822.31;5900151;24;20218;-87
2023/05/09 00:55:32;;;;;;;;;;;;;;;;;;;;;
2023/05/09 00:58:44;;;;;;;;;;;;;;;;;;;;;
2023/05/09 01:01:25;;;;;;;14.33;12.70;;;;;;;13.63;100.00;95813.81;5926925;24;20260;-86
2023/05/09 01:08:41;;;;;;;;;;;;;;;;;;;;;
2023/05/09 01:12:05;;;;;;;15.53;13.23;;;;;;;13.76;100.00;95809.72;5953457;24;20267;-87
2023/05/09 01:22:34;;;;;;;;;;;;;;;;;;;;;
2023/05/09 01:25:19;;;;;;;15.17;13.57;;;;;;;13.72;100.00;95795.38;5982291;24;20697;-86
2023/05/09 01:28:33;;;;;;;16.27;13.00;;;;;;;13.69;100.00;95795.69;5981259;23;20195;-87
2023/05/09 01:34:45;;;;;;;14.17;12.40;;;;;;;13.70;100.00;95783.47;5924251;24;20180;-85
2023/05/09 01:37:28;;;;;;;16.67;12.67;;;;;;;13.72;100.00;95790.16;5881002;24;20172;-86
2023/05/09 01:40:39;;;;;;;13.93;12.53;;;;;;;13.66;100.00;95784.75;5883188;24;20215;-85
2023/05/09 01:46:55;;;;;;;15.40;12.43;;;;;;;13.54;100.00;95789.47;5898901;24;20698;-86
2023/05/09 01:49:52;;;;;;;15.20;12.30;;;;;;;13.55;100.00;95791.94;6067486;23;20185;-86
2023/05/09 01:52:27;;;;;;;13.60;12.20;;;;;;;13.43;100.00;95795.81;6074637;23;20615;-85
2023/05/09 01:58:51;;;;;;;;;;;;;;;;;;;;;
2023/05/09 02:01:39;;;;;;;13.37;11.93;;;;;;;13.53;100.00;95775.63;6073437;23;20232;-86
2023/05/09 02:04:45;;;;;;;13.87;12.20;;;;;;;13.62;100.00;95778.25;6070695;23;20154;-85
2023/05/09 02:10:43;;;;;;;12.47;11.17;;;;;;;13.45;100.00;95777.41;5964084;23;20187;-84
2023/05/09 02:13:37;;;;;;;13.30;11.17;;;;;;;13.43;100.00;95777.56;5991040;23;20566;-87
2023/05/09 02:19:16;;;;;;;11.60;10.27;;;;;;;13.45;100.00;95765.16;5983833;24;20179;-87
2023/05/09 02:21:53;;;;;;;12.93;10.33;;;;;;;13.50;100.00;95767.28;5983256;23;20642;-85
2023/05/09 02:27:53;;;;;;;11.87;10.30;;;;;;;13.40;100.00;95758.78;5977729;23;20163;-86
2023/05/09 02:30:27;;;;;;;13.67;12.13;;;;;;;13.25;100.00;95762.03;5959934;24;20188;-86
2023/05/09 02:37:00;;;;;;;13.73;11.63;;;;;;;13.15;100.00;95768.28;5950414;24;20179;-87
2023/05/09 02:39:52;;;;;;;13.67;11.20;;;;;;;13.24;100.00;95762.16;5978430;23;20253;-86
2023/05/09 02:42:50;;;;;;;;;;;;;;;;;;;;;
2023/05/09 02:45:34;;;;;;;16.07;12.60;;;;;;;13.14;100.00;95757.06;5982488;23;20246;-87
2023/05/09 02:48:20;;;;;;;14.37;12.87;;;;;;;13.30;100.00;95751.09;5970892;23;20169;-86
2023/05/09 02:51:37;;;;;;;11.93;10.63;;;;;;;13.48;100.00;95749.19;5987253;23;20187;-87
2023/05/09 02:54:47;;;;;;;13.90;11.73;;;;;;;13.49;100.00;95745.59;6002805;23;20676;-86
2023/05/09 02:57:15;;;;;;;10.97;9.53;;;;;;;13.45;100.00;95751.31;5976625;23;20191;-85
2023/05/09 02:59:52;;;;;;;11.23;10.03;;;;;;;13.47;100.00;95742.34;6001775;23;20184;-87
2023/05/09 03:02:53;;;;;;;10.30;9.30;;;;;;;13.51;100.00;95751.47;6072663;23;20195;-85
2023/05/09 03:05:39;;;;;;;10.13;9.10;;;;;;;13.43;100.00;95743.66;6071234;23;20199;-86
2023/05/09 03:11:28;;;;;;;11.10;10.00;;;;;;;13.51;100.00;95748.03;6010584;23;20182;-87
2023/05/09 03:14:17;;;;;;;10.60;9.47;;;;;;;13.54;100.00;95742.53;5988177;23;20516;-85
2023/05/09 03:16:52;;;;;;;10.10;9.07;;;;;;;13.30;100.00;95749.31;5990222;23;20163;-87
2023/05/09 03:19:43;;;;;;;9.87;8.57;;;;;;;13.36;100.00;95747.06;5965737;23;21045;-86
2023/05/09 03:22:33;;;;;;;10.27;9.17;;;;;;;13.49;100.00;95739.56;6002360;23;20201;-86
2023/05/09 03:25:41;;;;;;;10.23;8.90;;;;;;;13.55;100.00;95738.94;5964363;23;20163;-86
2023/05/09 03:29:27;;;;;;;10.40;9.40;;;;;;;13.61;100.00;95740.91;5954835;24;20174;-86
2023/05/09 03:32:18;;;;;;;10.40;9.33;;;;;;;13.59;100.00;95728.00;5899698;24;20180;-85
2023/05/09 03:38:52;;;;;;;10.50;9.07;;;;;;;13.64;100.00;95722.31;5845406;24;20163;-86
2023/05/09 03:45:04;;;;;;;10.60;9.50;;;;;;;13.47;100.00;95720.66;5841322;24;20178;-88
2023/05/09 03:54:47;;;;;;;9.60;8.70;;;;;;;13.59;100.00;95719.34;5765013;24;20268;-87
2023/05/09 03:57:56;;;;;;;9.47;8.10;;;;;;;13.69;100.00;95719.19;5764672;24;20254;-85
2023/05/09 04:09:48;;;;;;;;;;;;;;;;;;;;;
2023/05/09 04:16:07;;;;;;;;;;;;;;;;;;;;;
2023/05/09 04:19:05;;;;;;;;;;;;;;;;;;;;;
2023/05/09 04:28:36;;;;;;;;;;;;;;;;;;;;;
2023/05/09 04:34:46;;;;;;;;;;;;;;;;;;;;;
2023/05/09 04:37:50;;;;;;;11.83;10.60;;;;;;;13.65;100.00;95700.44;6187071;23;20262;-85
2023/05/09 04:40:21;;;;;;;12.03;9.73;;;;;;;13.60;100.00;95708.78;6140926;23;20191;-86
2023/05/09 04:49:37;;;;;;;13.83;11.10;;;;;;;13.71;100.00;95710.25;5953263;24;20191;-84
2023/05/09 04:52:02;;;;;;;10.87;9.77;;;;;;;13.75;100.00;95719.38;5953509;24;20168;-83
2023/05/09 04:54:28;;;;;;;10.60;9.13;;;;;;;13.79;100.00;95715.47;5952768;24;20536;-85
2023/05/09 04:56:53;;;;;;;13.33;10.70;;;;;;;13.69;100.00;95712.19;5976827;24;20621;-83
2023/05/09 04:59:25;;;;;;;10.17;9.17;;;;;;;13.76;100.00;95712.34;5952437;24;20184;-84
2023/05/09 05:01:51;;;;;;;15.33;13.63;;;;;;;13.71;100.00;95712.84;5953109;24;20259;-81
2023/05/09 05:04:18;;;;;;;15.67;14.07;;;;;;;13.80;100.00;95714.50;5953412;24;20629;-83
2023/05/09 05:06:43;;;;;;;13.03;11.73;;;;;;;13.91;100.00;95710.72;5951519;24;20160;-83
2023/05/09 05:09:09;;;;;;;12.60;11.27;;;;;;;13.83;100.00;95708.94;5952284;24;20191;-83
2023/05/09 05:11:34;;;;;;;12.87;10.73;;;;;;;13.83;100.00;95715.94;5929126;24;20164;-82
2023/05/09 05:14:00;;;;;;;11.37;10.17;;;;;;;13.82;100.00;95704.69;5951654;24;20180;-84
2023/05/09 05:16:25;;;;;;;10.97;9.87;;;;;;;13.80;100.00;95711.88;5952122;24;20548;-83
2023/05/09 05:18:50;;;;;;;10.33;9.20;;;;;;;13.97;100.00;95714.50;5951988;24;20524;-83
2023/05/09 05:21:15;;;;;;;10.60;9.50;;;;;;;14.31;100.00;95701.19;6005647;23;20181;-84
2023/05/09 05:23:41;;;;;;;11.00;9.07;;;;;;;14.36;100.00;95704.94;6040851;23;20165;-83
2023/05/09 05:26:06;;;;;;;10.57;9.57;;;;;;;14.66;100.00;95702.59;6116965;23;20608;-83
2023/05/09 05:28:31;;;;;;;10.00;9.00;;;;;;;14.96;100.00;95706.25;6157766;23;20194;-83
2023/05/09 05:30:57;;;;;;;10.50;9.40;;;;;;;15.18;100.00;95708.09;6183084;23;20268;-83
2023/05/09 05:33:22;;;;;;;9.27;8.47;;;;;;;15.42;99.29;95695.84;6186947;23;20213;-85
2023/05/09 05:35:47;;;;;;;9.38;8.48;;;;;;;15.59;97.63;95689.53;6160141;23;20151;-85
2023/05/09 05:38:13;;;;;;;8.13;7.25;;;;;;;15.78;97.27;95690.88;6161033;23;20158;-85
2023/05/09 05:40:38;;;;;;;8.63;7.82;;;;;;;16.29;96.58;95691.88;6159998;23;20179;-85
2023/05/09 05:43:03;;;;;;;8.45;7.03;;;;;;;16.78;95.10;95698.41;6185773;23;20167;-84
2023/05/09 05:45:29;;;;;;;8.38;7.53;;;;;;;17.44;89.07;95696.59;6161055;23;20163;-85
2023/05/09 05:47:55;;;;;;;10.52;6.47;;;;;;;18.27;82.08;95705.63;6161078;23;20708;-85
2023/05/09 05:50:20;;;;;;;6.22;5.72;;;;;;;18.23;81.45;95697.31;6136269;23;20182;-86
2023/05/09 05:52:46;;;;;;;6.50;5.90;;;;;;;18.24;81.81;95696.31;6161170;23;20190;-85
2023/05/09 05:55:11;;;;;;;6.90;6.20;;;;;;;17.68;82.31;95690.97;6187073;23;20201;-85
2023/05/09 05:57:37;;;;;;;8.07;7.47;;;;;;;17.51;83.62;95693.03;6162217;23;20163;-85
2023/05/09 06:00:07;;;;;;;6.15;5.65;;;;;;;17.27;86.02;95688.94;6191154;23;20232;-84
2023/05/09 06:02:37;;;;;;;8.07;6.82;;;;;;;17.40;85.72;95690.88;6191560;23;20166;-84
2023/05/09 06:05:03;;;;;;;8.85;8.05;;;;;;;17.60;84.98;95691.09;6164207;23;20474;-84
2023/05/09 06:07:32;;;;;;;8.00;6.80;;;;;;;18.35;80.73;95689.69;6163487;23;20199;-86
2023/05/09 06:09:57;;;;;;;7.53;6.82;;;;;;;18.25;82.96;95687.41;6163488;23;20178;-85
2023/05/09 06:19:09;;;;;;;9.07;7.47;;;;;;;17.64;82.50;95673.94;6100175;23;21133;-86
2023/05/09 06:21:34;;;;;;;8.77;7.78;;;;;;;17.81;82.88;95675.34;6160200;23;20241;-84
2023/05/09 06:28:06;;;;;;;;;;;;;;;;;;;;;
2023/05/09 06:33:07;;;;;;;9.25;8.35;;;;;;;17.03;88.65;95668.25;6188573;23;20193;-86
2023/05/09 06:35:41;;;;;;;10.18;9.18;;;;;;;17.18;88.91;95666.44;6134774;23;20163;-86
2023/05/09 06:41:41;;;;;;;8.98;8.15;;;;;;;17.27;88.97;95667.94;6185680;23;20200;-86
2023/05/09 06:45:07;;;;;;;;;;;;;;;;;;;;;
2023/05/09 06:55:04;;;;;;;9.05;8.18;;;;;;;17.56;87.95;95653.06;6007246;23;20185;-86
2023/05/09 06:57:57;;;;;;;10.45;9.45;;;;;;;17.63;86.98;95659.19;5984542;23;20171;-86
2023/05/09 07:01:21;;;;;;;10.13;9.13;;;;;;;18.29;83.08;95661.56;6006719;23;20198;-86
2023/05/09 07:04:39;;;;;;;10.63;9.13;;;;;;;18.60;81.91;95663.75;5981352;24;20246;-85
2023/05/09 07:07:10;;;;;;;10.77;9.68;;;;;;;18.98;78.80;95650.19;5896756;24;20165;-86
2023/05/09 07:09:36;;;;;;;10.82;9.80;;;;;;;18.95;78.64;95641.69;5874357;24;20636;-86
2023/05/09 07:12:54;;;;;;;11.73;10.35;;;;;;;19.55;77.29;95643.66;5875615;24;20165;-86
2023/05/09 07:15:22;;;;;;;10.32;9.38;;;;;;;19.12;76.78;95639.53;5897755;24;20165;-86
2023/05/09 07:17:59;;;;;;;10.50;9.50;;;;;;;18.76;77.68;95624.00;5897555;24;20265;-86
2023/05/09 07:20:29;;;;;;;11.63;10.43;;;;;;;18.55;78.92;95621.44;5897929;24;20265;-86
2023/05/09 07:26:40;;;;;;;11.88;10.77;;;;;;;17.81;84.88;95624.63;5818057;24;20527;-86
2023/05/09 07:30:15;;;;;;;;;;;;;;;;;;;;;
2023/05/09 07:33:06;;;;;;;;;;;;;;;;;;;;;
2023/05/09 07:36:25;;;;;;;;;;;;;;;;;;;;;
2023/05/09 07:39:45;;;;;;;13.93;11.55;;;;;;;17.48;85.47;95608.56;5741108;25;21019;-86
2023/05/09 07:42:31;;;;;;;12.55;11.35;;;;;;;17.75;84.97;95599.91;5767831;24;20270;-86
2023/05/09 07:44:57;;;;;;;13.30;12.00;;;;;;;17.74;84.71;95600.94;5823664;24;20170;-86
2023/05/09 07:51:03;;;;;;;15.48;13.75;;;;;;;18.02;80.34;95605.38;5826878;24;20213;-86
2023/05/09 07:53:45;;;;;;;13.82;12.43;;;;;;;18.27;80.41;95593.41;5800600;24;20166;-86
2023/05/09 07:56:28;;;;;;;11.02;9.90;;;;;;;18.64;79.87;95591.34;5821609;24;20223;-86
2023/05/09 07:58:59;;;;;;;13.27;10.90;;;;;;;18.64;79.71;95589.53;5825373;24;20211;-87
2023/05/09 08:01:36;;;;;;;10.70;9.55;;;;;;;18.63;79.57;95587.09;5823146;24;20201;-86
2023/05/09 08:04:03;;;;;;;11.00;9.82;;;;;;;18.59;78.35;95577.97;5803996;24;20185;-85
2023/05/09 08:06:34;;;;;;;11.20;9.88;;;;;;;18.67;78.77;95573.41;5899212;24;20677;-87
2023/05/09 08:09:00;;;;;;;13.23;9.57;;;;;;;18.78;77.85;95569.38;5978188;23;20158;-81
2023/05/09 08:11:26;;;;;;;10.40;9.40;;;;;;;18.77;77.92;95559.06;6044926;23;20232;-85
2023/05/09 08:13:56;;;;;;;10.13;9.13;;;;;;;18.29;77.79;95562.50;6045844;23;20268;-85
2023/05/09 08:20:37;;;;;;;;;;;;;;;;;;;;;
2023/05/09 08:26:41;;;;;;;8.80;8.00;;;;;;;19.55;74.52;95557.56;6187764;23;20232;-86
2023/05/09 08:29:09;;;;;;;7.57;6.88;;;;;;;19.93;73.26;95549.84;6140172;23;20185;-85
2023/05/09 08:32:10;;;;;;;7.63;6.93;;;;;;;20.30;72.10;95553.59;6142182;23;20154;-85
2023/05/09 08:34:39;;;;;;;7.40;6.63;;;;;;;20.39;72.20;95551.53;6012743;23;20262;-85
2023/05/09 08:37:04;;;;;;;8.25;7.30;;;;;;;20.18;72.64;95549.19;5969753;23;20551;-85
2023/05/09 08:42:21;;;;;;;7.53;6.82;;;;;;;19.89;70.41;95551.28;6013819;23;20319;-86
2023/05/09 08:45:00;;;;;;;11.23;7.40;;;;;;;19.58;71.89;95543.19;6014738;23;20223;-86
2023/05/09 08:50:34;;;;;;;7.25;6.53;;;;;;;19.17;74.17;95539.72;6011565;23;20242;-86
2023/05/09 08:53:36;;;;;;;8.30;7.50;;;;;;;19.15;73.06;95533.00;5968166;23;20190;-86
2023/05/09 08:56:17;;;;;;;7.20;6.57;;;;;;;19.50;73.45;95529.19;5986481;23;20241;-86
2023/05/09 09:02:56;;;;;;;;;;;;;;;;;;;;;
2023/05/09 09:05:31;;;;;;;8.30;6.75;;;;;;;19.47;73.78;95520.88;5822092;24;20202;-86
2023/05/09 09:08:38;;;;;;;;;;;;;;;;;;;;;
2023/05/09 09:11:31;;;;;;;7.82;7.10;;;;;;;19.50;72.99;95510.75;5825499;24;20196;-86
2023/05/09 09:14:15;;;;;;;7.43;6.72;;;;;;;19.76;70.25;95511.75;5912037;24;20165;-86
2023/05/09 09:16:55;;;;;;;6.60;6.00;;;;;;;20.13;69.49;95506.81;5908478;24;20165;-87
2023/05/09 09:19:21;;;;;;;6.32;5.63;;;;;;;20.12;69.05;95510.47;5879839;24;20663;-85
2023/05/09 09:21:48;;;;;;;7.10;6.40;;;;;;;20.68;67.25;95507.25;5901087;24;20192;-85
2023/05/09 09:24:18;;;;;;;6.53;5.93;;;;;;;20.53;68.08;95497.75;5901367;24;20319;-84
2023/05/09 09:26:48;;;;;;;7.18;6.47;;;;;;;20.95;66.18;95505.25;5901278;24;20172;-82
2023/05/09 09:29:14;;;;;;;6.95;6.25;;;;;;;21.07;66.50;95499.06;5925225;24;20212;-84
2023/05/09 09:31:43;;;;;;;6.82;5.63;;;;;;;21.35;64.88;95492.59;5924978;24;20164;-84
2023/05/09 09:34:08;;;;;;;7.97;5.85;;;;;;;21.71;65.12;95492.66;5901593;24;20165;-83
2023/05/09 09:36:35;;;;;;;6.28;5.68;;;;;;;22.00;60.85;95485.06;5923946;24;20228;-83
2023/05/09 09:39:05;;;;;;;5.90;5.38;;;;;;;21.80;62.87;95476.53;5987375;23;20166;-83
2023/05/09 09:41:37;;;;;;;7.10;5.10;;;;;;;22.10;62.38;95476.66;6070287;23;20189;-83
2023/05/09 09:44:07;;;;;;;6.38;5.68;;;;;;;21.54;61.50;95475.75;6184504;23;20154;-85
2023/05/09 09:46:51;;;;;;;5.95;5.45;;;;;;;21.45;62.84;95471.75;6133855;23;20158;-83
2023/05/09 09:49:20;;;;;;;5.90;4.72;;;;;;;21.45;63.93;95467.28;6185879;23;20178;-84
2023/05/09 09:51:53;;;;;;;5.20;4.70;;;;;;;21.01;62.31;95467.41;6186390;23;20592;-83
2023/05/09 09:54:19;;;;;;;4.90;4.43;;;;;;;21.42;61.25;95474.84;6160693;23;20143;-83
2023/05/09 09:56:49;;;;;;;7.00;4.15;;;;;;;21.30;61.80;95464.19;6132621;23;20181;-83
2023/05/09 09:59:20;;;;;;;5.32;4.15;;;;;;;21.27;62.75;95463.78;6133945;23;20190;-85
2023/05/09 10:01:59;;;;;;;4.82;4.38;;;;;;;21.14;62.58;95464.69;6158628;23;20194;-83
2023/05/09 10:04:30;;;;;;;4.47;4.05;;;;;;;21.29;62.15;95456.47;6131865;23;20158;-84
2023/05/09 10:07:04;;;;;;;4.88;4.13;;;;;;;21.02;63.63;95451.34;6156912;23;20142;-85
2023/05/09 10:09:29;;;;;;;3.60;3.17;;;;;;;21.20;60.11;95445.31;6133672;23;20217;-85
2023/05/09 10:11:55;;;;;;;3.08;2.80;;;;;;;21.33;60.79;95442.63;6157764;23;20225;-82
2023/05/09 10:14:22;;;;;;;3.28;3.08;;;;;;;21.33;62.08;95441.81;6159225;23;20161;-84
2023/05/09 10:20:45;;;;;;;;;;;;;;;;;;;;;
2023/05/09 10:23:26;;;;;;;3.30;2.60;;;;;;;21.49;58.47;95428.06;6164805;23;20257;-87
2023/05/09 10:26:16;;;;;;;2.78;2.58;;;;;;;21.34;57.80;95417.81;6159194;23;20166;-84
2023/05/09 10:29:04;;;;;;;;;;;;;;;;;;;;;
2023/05/09 10:42:36;;;;;;;6.25;3.05;;;;;;;21.57;59.96;95392.63;5841984;24;20709;-87
2023/05/09 10:45:54;;;;;;;2.67;2.47;;;;;;;22.00;57.79;95388.06;5843960;24;20181;-87
2023/05/09 10:48:47;;;;;;;3.47;2.40;;;;;;;21.32;60.61;95393.47;5822660;24;20167;-86
2023/05/09 10:51:19;;;;;;;6.97;2.63;;;;;;;21.68;61.74;95384.75;5844745;24;20196;-86
2023/05/09 10:55:03;;;;;;;3.03;2.35;;;;;;;21.42;59.14;95377.13;5822008;24;20178;-86
2023/05/09 10:57:30;;;;;;;3.25;1.95;;;;;;;21.61;58.96;95365.53;5812123;24;20167;-83
2023/05/09 10:59:59;;;;;;;2.83;2.45;;;;;;;21.15;60.42;95369.41;5796593;24;21085;-87
2023/05/09 11:05:45;;;;;;;2.50;2.30;;;;;;;21.84;56.33;95348.19;5817649;24;20232;-86
2023/05/09 11:08:29;;;;;;;2.10;2.00;;;;;;;21.80;55.75;95349.66;5819322;24;20171;-86
2023/05/09 11:10:56;;;;;;;4.53;2.22;;;;;;;21.80;55.50;95350.47;5824697;24;20193;-85
2023/05/09 11:13:29;;;;;;;3.45;2.50;;;;;;;21.85;56.82;95344.53;5932023;24;20164;-86
2023/05/09 11:16:00;;;;;;;2.80;2.25;;;;;;;20.54;61.36;95335.81;5991002;23;20200;-86
2023/05/09 11:18:32;;;;;;;2.60;2.40;;;;;;;20.98;60.47;95344.59;6068715;23;20161;-85
2023/05/09 11:21:10;;;;;;;2.22;2.13;;;;;;;21.05;60.95;95340.06;6021163;23;20189;-86
2023/05/09 11:23:37;;;;;;;2.35;2.10;;;;;;;21.56;58.46;95335.53;6023209;23;20157;-85
2023/05/09 11:26:08;;;;;;;2.35;2.20;;;;;;;21.18;59.64;95334.66;6164211;23;20193;-87
2023/05/09 11:29:01;;;;;;;2.47;2.22;;;;;;;21.04;59.01;95329.72;6139149;23;20166;-86
2023/05/09 11:34:25;;;;;;;2.47;2.22;;;;;;;20.83;60.04;95325.63;6167457;23;20257;-86
2023/05/09 11:37:15;;;;;;;2.25;2.10;;;;;;;21.55;57.58;95313.56;6134550;23;20166;-86
2023/05/09 11:40:16;;;;;;;2.60;2.40;;;;;;;20.94;57.68;95306.47;6163040;23;20175;-86
2023/05/09 11:43:09;;;;;;;2.33;2.10;;;;;;;21.92;55.46;95305.59;6046396;23;20192;-85
2023/05/09 11:45:44;;;;;;;2.72;2.45;;;;;;;21.96;54.54;95302.25;5984478;23;20173;-87
2023/05/09 11:48:23;;;;;;;2.65;2.47;;;;;;;21.93;54.69;95294.00;5986901;23;20254;-84
2023/05/09 11:50:49;;;;;;;2.47;2.28;;;;;;;21.71;55.55;95291.81;5964607;23;20525;-85
2023/05/09 11:53:17;;;;;;;2.50;2.30;;;;;;;22.06;55.53;95288.50;6011127;23;20176;-84
2023/05/09 11:55:48;;;;;;;5.50;2.92;;;;;;;21.94;56.96;95285.03;5961853;23;20171;-84
2023/05/09 11:58:18;;;;;;;3.85;2.47;;;;;;;22.00;56.19;95279.66;5987143;23;20166;-85
2023/05/09 12:00:51;;;;;;;2.83;2.08;;;;;;;22.39;54.83;95274.00;5963867;23;20290;-85
2023/05/09 12:03:44;;;;;;;2.28;2.17;;;;;;;22.63;53.90;95277.50;6006924;23;20171;-85
2023/05/09 12:06:14;;;;;;;3.67;2.80;;;;;;;22.46;52.59;95272.88;5963421;23;20173;-84
2023/05/09 12:08:49;;;;;;;2.80;2.60;;;;;;;22.30;53.95;95268.25;5983436;23;20170;-83
2023/05/09 12:11:31;;;;;;;3.00;2.63;;;;;;;22.17;54.83;95265.78;6047969;23;20210;-85
2023/05/09 12:13:56;;;;;;;4.75;3.10;;;;;;;22.08;54.92;95254.72;6091533;23;20169;-82
2023/05/09 12:56:39;;;;;;;2.60;2.40;;;;;;;22.52;50.08;95202.34;6135874;23;20552;-86
2023/05/09 12:59:09;;;;;;;3.15;2.70;;;;;;;23.29;49.45;95208.25;6097744;23;20566;-84
2023/05/09 13:01:35;;;;;;;2.80;2.60;;;;;;;23.14;48.15;95197.34;6100366;23;20251;-87
2023/05/09 13:04:02;;;;;;;4.00;2.60;;;;;;;23.44;47.76;95195.31;6076237;23;20606;-85
2023/05/09 13:06:30;;;;;;;30.50;4.72;;;;;;;22.82;48.63;95191.66;6076575;23;20566;-85
2023/05/09 13:08:57;;;;;;;2.22;2.13;;;;;;;22.97;49.83;95193.81;6100901;23;20235;-86
2023/05/09 13:11:26;;;;;;;2.65;2.45;;;;;;;22.93;47.64;95179.44;6078055;23;20152;-87
2023/05/09 13:13:53;;;;;;;3.30;2.70;;;;;;;23.28;48.03;95185.47;6077902;23;20171;-86
2023/05/09 13:16:18;;;;;;;2.60;2.40;;;;;;;23.25;48.01;95180.66;6100554;23;20195;-87
2023/05/09 13:18:44;;;;;;;3.15;2.47;;;;;;;22.87;49.00;95174.03;6077556;23;20222;-85
2023/05/09 13:21:09;;;;;;;5.00;2.50;;;;;;;22.99;50.33;95165.28;6074711;23;20191;-82
2023/05/09 13:23:35;;;;;;;3.17;2.53;;;;;;;23.05;49.32;95165.13;6123923;23;20164;-86
2023/05/09 13:26:00;;;;;;;2.95;2.60;;;;;;;22.69;49.55;95158.28;6075009;23;20171;-86
2023/05/09 13:28:25;;;;;;;3.30;2.70;;;;;;;23.12;47.69;95165.00;6101071;23;20219;-86
2023/05/09 13:30:51;;;;;;;3.63;2.55;;;;;;;23.13;49.06;95154.19;6076227;23;20243;-85
2023/05/09 13:33:16;;;;;;;2.55;2.30;;;;;;;23.03;48.65;95150.53;6102264;23;20172;-86
2023/05/09 13:35:41;;;;;;;3.95;2.17;;;;;;;23.13;48.55;95146.22;6110957;23;20166;-84
2023/05/09 13:38:07;;;;;;;4.05;2.58;;;;;;;23.05;48.20;95148.44;6162583;23;20193;-84
2023/05/09 13:40:32;;;;;;;3.10;2.47;;;;;;;23.22;48.25;95148.50;6138177;23;20187;-84
2023/05/09 13:42:57;;;;;;;3.05;2.47;;;;;;;22.91;48.85;95144.47;6136707;23;20158;-87
2023/05/09 13:45:22;;;;;;;2.40;2.20;;;;;;;21.99;50.43;95139.72;6137779;23;20182;-83
2023/05/09 13:47:49;;;;;;;2.30;2.10;;;;;;;22.63;49.69;95135.41;6161541;23;20165;-84
2023/05/09 13:50:14;;;;;;;2.47;2.28;;;;;;;22.67;49.26;95136.53;6163445;23;20185;-86
2023/05/09 13:52:40;;;;;;;2.40;2.20;;;;;;;22.93;48.98;95137.09;6137274;23;20158;-87
2023/05/09 13:55:08;;;;;;;2.90;2.60;;;;;;;22.63;53.07;95131.94;6161191;23;20671;-86
2023/05/09 13:57:36;;;;;;;4.35;2.75;;;;;;;22.10;56.33;95125.78;6137034;23;20221;-87
2023/05/09 14:00:03;;;;;;;3.83;3.22;;;;;;;21.92;58.96;95123.19;6136993;23;20186;-83
2023/05/09 14:02:30;;;;;;;2.72;2.53;;;;;;;21.74;58.74;95119.59;6162854;23;20178;-85
2023/05/09 14:04:57;;;;;;;2.90;2.70;;;;;;;21.24;61.13;95118.28;6137744;23;20167;-84
2023/05/09 14:07:47;;;;;;;5.18;2.85;;;;;;;21.48;61.87;95117.38;6162380;23;20158;-84
2023/05/09 14:11:06;;;;;;;;;;;;;;;;;;;;;
2023/05/09 14:13:44;;;;;;;4.53;2.60;;;;;;;20.92;61.87;95113.19;6189358;23;20211;-84
2023/05/09 14:17:17;;;;;;;3.28;2.72;;;;;;;20.97;62.24;95100.16;6188100;23;20157;-84
2023/05/09 14:27:35;;;;;;;2.95;2.75;;;;;;;20.74;62.87;95094.75;6134280;23;20238;-84
2023/05/09 14:30:02;;;;;;;3.00;2.70;;;;;;;20.60;62.50;95087.00;6118755;23;20183;-84
2023/05/09 14:32:27;;;;;;;3.15;2.50;;;;;;;20.39;63.46;95090.03;6131706;23;20189;-84
2023/05/09 14:34:53;;;;;;;2.92;2.53;;;;;;;20.89;61.11;95092.53;6130739;23;20159;-85
2023/05/09 14:37:18;;;;;;;3.80;2.50;;;;;;;21.06;62.21;95079.53;6105322;23;20190;-83
2023/05/09 14:39:44;;;;;;;3.55;2.67;;;;;;;21.49;59.30;95076.69;6131771;23;20202;-85
2023/05/09 15:01:20;;;;;;;;;;;;;;;;;;;;;
2023/05/09 15:07:23;;;;;;;1.90;1.80;;;;;;;21.42;52.80;95049.59;6004638;23;20194;-86
2023/05/09 15:10:38;;;;;;;1.80;1.70;;;;;;;21.40;54.09;95041.09;6006008;23;20292;-88
2023/05/09 15:17:10;;;;;;;1.90;1.80;;;;;;;21.16;56.04;95043.63;6005806;23;20242;-87
2023/05/09 15:20:03;;;;;;;2.30;1.70;;;;;;;21.54;54.80;95036.38;5923354;24;20176;-86
2023/05/09 16:31:50;;;;;;;4.45;3.60;;;;;;;19.09;71.71;94981.97;6171747;23;20261;-85
2023/05/09 16:34:18;;;;;;;5.78;4.13;;;;;;;19.17;72.12;94978.25;6158254;23;20655;-82
2023/05/09 16:36:45;;;;;;;4.45;3.47;;;;;;;18.98;72.50;94976.56;6156971;23;20162;-80
2023/05/09 16:39:10;;;;;;;5.03;3.55;;;;;;;18.99;73.04;94978.19;6186288;23;20182;-80
2023/05/09 16:41:35;;;;;;;3.22;2.90;;;;;;;18.81;74.39;94989.44;6211827;23;20660;-79
2023/05/09 16:44:01;;;;;;;3.45;2.50;;;;;;;18.78;74.23;94979.34;6161313;23;20437;-80
2023/05/09 16:46:26;;;;;;;2.90;2.70;;;;;;;18.68;76.21;94995.59;6160581;23;20193;-80
2023/05/09 16:48:51;;;;;;;4.85;2.83;;;;;;;18.41;77.84;94992.25;6186527;23;20591;-81
2023/05/09 16:51:17;;;;;;;3.20;2.63;;;;;;;18.31;79.82;94990.06;6161528;23;20154;-81
2023/05/09 16:53:42;;;;;;;3.30;2.60;;;;;;;18.17;80.37;95001.66;6212537;23;20154;-81
2023/05/09 16:56:09;;;;;;;4.53;2.55;;;;;;;18.07;81.59;95003.91;6185268;23;20170;-81
2023/05/09 16:58:35;;;;;;;2.97;2.67;;;;;;;17.97;83.79;94998.28;6163978;23;20484;-82
2023/05/09 17:01:01;;;;;;;3.35;3.05;;;;;;;17.61;86.67;95003.97;6187208;23;20185;-82
2023/05/09 17:03:26;;;;;;;5.43;3.30;;;;;;;17.09;90.78;95000.34;6187441;23;20158;-81
2023/05/09 17:05:51;;;;;;;4.32;2.50;;;;;;;16.95;86.04;94983.78;6160865;23;20170;-82
2023/05/09 17:08:16;;;;;;;1.70;1.60;;;;;;;16.72;78.18;94984.19;6163276;23;20165;-83
2023/05/09 17:10:42;;;;;;;2.05;1.85;;;;;;;16.87;81.24;94987.44;6162825;23;20558;-81
2023/05/09 17:13:07;;;;;;;4.00;2.20;;;;;;;16.97;82.04;94993.09;6188144;23;20168;-83
2023/05/09 17:15:33;;;;;;;2.15;2.00;;;;;;;16.94;83.58;94987.41;6164851;23;20150;-82
2023/05/09 17:17:59;;;;;;;2.63;2.42;;;;;;;16.93;84.41;94988.44;6188449;23;20158;-81
2023/05/09 17:20:25;;;;;;;5.05;3.00;;;;;;;17.02;86.50;94991.66;6163932;23;20174;-80
2023/05/09 17:26:50;;;;;;;2.78;2.30;;;;;;;16.83;87.26;94991.44;6211617;23;20238;-87
2023/05/09 18:19:57;;;;;;;3.35;3.03;;;;;;;16.25;91.84;94979.75;6180488;23;20230;-86
2023/05/09 18:23:22;;;;;;;;;;;;;;;;;;;;;
2023/05/09 20:42:00;;;;;;;1.40;1.00;;;;;;;14.51;94.90;94986.59;6130034;23;20235;-86
2023/05/09 20:44:26;;;;;;;1.95;1.20;;;;;;;14.26;96.86;94978.25;6158625;23;20261;-85
2023/05/09 20:46:57;;;;;;;3.07;1.40;;;;;;;14.38;96.65;94978.56;6181989;23;20620;-86
2023/05/09 20:49:26;;;;;;;1.90;1.80;;;;;;;14.33;97.47;94981.75;6189945;23;20170;-86
2023/05/09 20:52:03;;;;;;;3.77;1.70;;;;;;;14.41;97.84;94981.63;6186796;23;20146;-85
2023/05/09 20:54:29;;;;;;;2.80;1.60;;;;;;;14.21;98.96;94983.19;6187819;23;20134;-87
2023/05/09 20:56:55;;;;;;;3.40;1.90;;;;;;;14.18;98.84;94980.97;6185287;23;20162;-83
2023/05/09 20:59:23;;;;;;;2.22;1.50;;;;;;;14.31;98.48;94978.50;6161235;23;20737;-84
2023/05/09 21:02:12;;;;;;;;;;;;;;;;;;;;;
2023/05/09 21:04:43;;;;;;;1.67;1.43;;;;;;;14.27;99.38;94974.63;6213644;23;20229;-84
2023/05/09 21:07:40;;;;;;;1.90;1.70;;;;;;;14.14;99.60;94975.31;6161574;23;20169;-86
2023/05/09 21:10:47;;;;;;;;;;;;;;;;;;;;;
2023/05/09 21:16:56;;;;;;;;;;;;;;;;;;;;;
2023/05/09 21:20:28;;;;;;;2.70;1.80;;;;;;;14.26;100.00;94980.03;6128820;23;20254;-85
2023/05/09 21:23:35;;;;;;;3.63;2.00;;;;;;;14.20;100.00;94978.16;6063136;23;20193;-85
2023/05/09 21:26:10;;;;;;;2.88;1.98;;;;;;;14.08;100.00;94972.59;5982408;23;20514;-85
2023/05/09 21:28:48;;;;;;;2.10;1.90;;;;;;;14.10;100.00;94973.22;5983296;23;20174;-86
2023/05/09 21:31:28;;;;;;;2.90;1.93;;;;;;;14.25;100.00;94973.22;5981141;23;20290;-85